Murom, Russia
Current Conditions -  °F | °C
As of 12:00 PM on Tuesday 21 Oct 2014 (Local Time) from UWGG Reporting Station
Light Snow Light Snow  
Wind Chill: 24°   Ceiling: 1000
Heat Index: 32°   Visibility: 1.8mi
Dew Point: 30°   Wind: 9mph
Humidity: 93%   Direction: 110°ESE
Pressure: 29.41"   Gusts: NA
Location:  55.57°N, 42.04°E
Report Text: UWGG 210900Z 11004MPS 2900 -SN OVC010 M00/M01 Q0996 NOSIG18550240 RMK QFE740
Loading
Personal Weather Stations






























Interactive Weather Map
Tropical Storm Tracking
New forecast layout! Learn more

10-Day Weather Forecast

Advertisements
Track Severe Weather on mobile